Time;durP1;ratioP1;P1;durP2;ratioP2;P2;SDS_P1;SDS_P2;PMS_P1;PMS_P2;Temp;Humidity;BMP_temperature;BMP_pressure;BME280_temperature;BME280_humidity;BME280_pressure;Samples;Min_cycle;Max_cycle;Signal;HPM_P1;HPM_P2
2022/04/24 00:01:59;;;;;;;42.75;27.77;;;10.40;81.90;;;;;;5055877;28;20129;-77
2022/04/24 00:04:25;;;;;;;38.83;24.85;;;10.40;82.20;;;;;;5056282;28;20033;-79
2022/04/24 00:06:53;;;;;;;56.63;28.80;;;10.40;82.20;;;;;;5055028;28;20035;-76
2022/04/24 00:09:21;;;;;;;39.03;26.30;;;10.40;82.20;;;;;;5055699;28;20029;-78
2022/04/24 00:11:47;;;;;;;45.60;27.02;;;10.40;82.20;;;;;;5037776;28;20110;-79
2022/04/24 00:14:14;;;;;;;38.33;27.30;;;10.40;82.30;;;;;;5055474;28;20025;-78
2022/04/24 00:16:40;;;;;;;34.33;26.33;;;10.40;82.30;;;;;;5055557;28;20466;-77
2022/04/24 00:19:07;;;;;;;37.28;26.88;;;10.30;82.30;;;;;;5055256;28;20025;-80
2022/04/24 00:21:33;;;;;;;38.88;27.48;;;10.30;82.60;;;;;;5055302;28;20036;-77
2022/04/24 00:23:59;;;;;;;39.70;26.77;;;10.20;82.70;;;;;;5054413;28;20497;-78
2022/04/24 00:26:25;;;;;;;36.30;26.58;;;10.20;83.00;;;;;;5037286;28;20116;-76
2022/04/24 00:28:51;;;;;;;34.05;24.15;;;10.20;83.30;;;;;;5055167;28;20017;-77
2022/04/24 00:31:17;;;;;;;39.80;25.65;;;10.10;83.20;;;;;;5053379;28;20098;-78
2022/04/24 00:33:43;;;;;;;31.20;23.23;;;10.20;83.40;;;;;;5037929;28;20029;-77
2022/04/24 00:36:09;;;;;;;36.38;23.75;;;10.30;83.30;;;;;;5034969;28;20131;-78
2022/04/24 00:38:35;;;;;;;32.67;22.60;;;10.30;83.10;;;;;;5035189;28;20128;-80
2022/04/24 00:41:14;;;;;;;37.17;22.23;;;10.40;82.90;;;;;;5092779;27;20150;-78
2022/04/24 00:43:41;;;;;;;30.15;23.05;;;10.40;82.50;;;;;;5049738;28;20479;-78
2022/04/24 00:46:16;;;;;;;36.70;23.60;;;10.50;82.50;;;;;;5049916;28;20445;-79
2022/04/24 00:48:43;;;;;;;38.08;24.00;;;10.60;82.40;;;;;;5049562;28;20029;-78
2022/04/24 00:51:09;;;;;;;32.40;25.00;;;10.70;82.20;;;;;;5049010;28;20449;-78
2022/04/24 00:53:36;;;;;;;37.70;23.83;;;10.70;82.00;;;;;;5049299;28;20483;-77
2022/04/24 00:56:03;;;;;;;38.13;25.10;;;10.80;81.80;;;;;;5047048;28;20025;-78
2022/04/24 00:58:29;;;;;;;40.35;26.25;;;10.80;81.60;;;;;;5049182;28;20032;-78
2022/04/24 01:00:56;;;;;;;33.30;23.60;;;10.90;81.60;;;;;;5049341;28;20033;-78
2022/04/24 01:03:23;;;;;;;40.05;25.23;;;10.90;81.70;;;;;;5049138;28;20383;-77
2022/04/24 01:05:49;;;;;;;34.47;23.63;;;10.90;81.50;;;;;;5047946;28;20033;-76
2022/04/24 01:08:15;;;;;;;33.88;23.52;;;10.90;81.40;;;;;;5048079;28;20021;-76
2022/04/24 01:10:41;;;;;;;40.35;25.58;;;10.90;81.30;;;;;;5048335;28;20036;-78
2022/04/24 01:13:07;;;;;;;31.48;24.42;;;10.90;81.50;;;;;;5048803;28;20195;-77
2022/04/24 01:15:33;;;;;;;34.13;23.45;;;10.80;81.60;;;;;;5048895;28;20033;-78
2022/04/24 01:18:00;;;;;;;35.40;24.20;;;10.80;81.40;;;;;;5049005;28;20498;-77
2022/04/24 01:20:26;;;;;;;31.83;24.17;;;10.80;81.50;;;;;;5048940;28;20348;-76
2022/04/24 01:22:52;;;;;;;35.03;23.98;;;10.70;81.70;;;;;;5049051;28;20027;-77
2022/04/24 01:25:18;;;;;;;32.78;24.02;;;10.70;82.10;;;;;;5047912;28;20061;-77
2022/04/24 01:27:44;;;;;;;34.30;24.02;;;10.70;82.10;;;;;;5048565;28;20083;-77
2022/04/24 01:30:10;;;;;;;37.97;24.33;;;10.70;82.10;;;;;;5048572;28;20029;-77
2022/04/24 01:32:38;;;;;;;31.83;24.27;;;10.60;82.30;;;;;;5048615;28;20028;-78
2022/04/24 01:35:04;;;;;;;30.50;23.45;;;10.60;82.30;;;;;;5048433;28;20108;-78
2022/04/24 01:37:30;;;;;;;40.45;24.17;;;10.60;82.40;;;;;;5048370;28;20096;-77
2022/04/24 01:39:56;;;;;;;35.97;23.48;;;10.60;82.50;;;;;;5048023;28;20479;-77
2022/04/24 01:42:23;;;;;;;35.08;22.92;;;10.60;82.40;;;;;;5047698;28;20382;-77
2022/04/24 01:44:48;;;;;;;30.67;21.80;;;10.60;82.40;;;;;;5048357;28;20060;-77
2022/04/24 01:47:14;;;;;;;40.83;25.63;;;10.60;82.20;;;;;;5048192;28;20076;-78
2022/04/24 01:49:40;;;;;;;37.15;22.58;;;10.60;82.10;;;;;;5048212;28;20029;-77
2022/04/24 01:52:07;;;;;;;32.00;22.83;;;10.60;82.10;;;;;;5037802;28;20014;-77
2022/04/24 01:54:33;;;;;;;35.72;24.17;;;10.70;82.20;;;;;;5034881;28;20033;-77
2022/04/24 01:56:59;;;;;;;32.75;23.42;;;10.70;82.30;;;;;;5034791;28;20029;-77
2022/04/24 01:59:25;;;;;;;29.77;23.05;;;10.80;82.10;;;;;;5032790;28;20125;-78
2022/04/24 02:01:51;;;;;;;32.83;24.35;;;10.70;81.80;;;;;;5034741;28;20567;-76
2022/04/24 02:04:22;;;;;;;39.47;23.25;;;10.80;81.90;;;;;;5034833;28;20522;-77
2022/04/24 02:06:51;;;;;;;35.70;24.02;;;10.80;81.80;;;;;;5034749;28;20080;-79
2022/04/24 02:09:17;;;;;;;30.48;22.20;;;10.80;81.80;;;;;;5034706;28;20475;-77
2022/04/24 02:11:43;;;;;;;30.52;23.50;;;10.80;81.90;;;;;;5034571;28;20149;-77
2022/04/24 02:14:09;;;;;;;30.13;23.92;;;10.80;82.10;;;;;;5034208;28;20395;-77
2022/04/24 02:16:35;;;;;;;36.22;24.55;;;10.80;82.00;;;;;;5033990;28;20021;-77
2022/04/24 02:19:01;;;;;;;41.85;24.58;;;10.80;81.90;;;;;;5034316;28;20105;-77
2022/04/24 02:21:28;;;;;;;36.92;25.33;;;10.80;81.80;;;;;;5033089;28;20120;-77
2022/04/24 02:23:55;;;;;;;34.28;24.35;;;10.80;81.80;;;;;;5034336;28;20463;-78
2022/04/24 02:26:20;;;;;;;34.90;25.27;;;10.80;81.80;;;;;;5034629;28;20108;-78
2022/04/24 02:28:46;;;;;;;38.22;25.42;;;10.80;81.80;;;;;;5034252;28;20447;-78
2022/04/24 02:31:12;;;;;;;41.25;26.52;;;10.80;81.60;;;;;;5033378;28;20030;-77
2022/04/24 02:33:38;;;;;;;36.92;24.80;;;10.90;81.40;;;;;;5034412;28;20034;-77
2022/04/24 02:36:04;;;;;;;40.28;27.13;;;10.90;81.30;;;;;;5066931;28;20025;-77
2022/04/24 02:38:30;;;;;;;36.03;24.75;;;10.90;81.20;;;;;;5034473;28;20026;-77
2022/04/24 02:41:00;;;;;;;38.05;24.90;;;10.90;81.10;;;;;;5033197;28;20416;-77
2022/04/24 02:43:26;;;;;;;43.65;25.83;;;11.00;81.10;;;;;;5033878;28;20017;-76
2022/04/24 02:45:52;;;;;;;35.35;26.17;;;11.00;81.10;;;;;;5033863;28;20036;-76
2022/04/24 02:48:18;;;;;;;36.90;25.02;;;11.00;81.00;;;;;;5033423;28;20556;-76
2022/04/24 02:50:43;;;;;;;35.05;25.52;;;11.00;81.10;;;;;;5032904;28;20451;-75
2022/04/24 02:53:10;;;;;;;34.63;22.70;;;11.00;80.90;;;;;;5034022;28;20026;-77
2022/04/24 02:55:36;;;;;;;39.70;23.63;;;11.00;80.90;;;;;;5033950;28;20109;-79
2022/04/24 02:58:02;;;;;;;31.77;21.58;;;11.00;80.60;;;;;;5033641;28;20493;-77
2022/04/24 03:00:39;;;;;;;33.95;23.30;;;11.00;80.50;;;;;;5033504;28;20079;-78
2022/04/24 03:03:07;;;;;;;34.13;23.08;;;11.10;80.60;;;;;;5031406;28;20033;-78
2022/04/24 03:05:33;;;;;;;29.58;21.55;;;11.10;80.60;;;;;;5032715;28;20525;-77
2022/04/24 03:07:59;;;;;;;32.35;21.40;;;11.10;80.60;;;;;;5033472;28;20060;-77
2022/04/24 03:10:26;;;;;;;31.88;19.90;;;11.10;80.40;;;;;;5033537;28;20029;-77
2022/04/24 03:12:52;;;;;;;30.73;20.27;;;11.10;80.10;;;;;;5032910;28;20030;-76
2022/04/24 03:15:18;;;;;;;24.35;19.08;;;11.10;80.30;;;;;;5034466;28;20100;-76
2022/04/24 03:17:44;;;;;;;40.55;20.50;;;11.10;80.40;;;;;;5034063;28;20026;-77
2022/04/24 03:20:11;;;;;;;33.67;18.25;;;11.20;80.50;;;;;;5033209;28;20033;-77
2022/04/24 03:22:38;;;;;;;28.02;19.30;;;11.20;80.20;;;;;;5031343;28;20528;-77
2022/04/24 03:25:06;;;;;;;27.48;18.73;;;11.20;80.10;;;;;;5033276;28;20046;-75
2022/04/24 03:27:32;;;;;;;27.77;18.65;;;11.30;80.00;;;;;;5033291;28;20025;-77
2022/04/24 03:29:58;;;;;;;26.40;18.80;;;11.30;79.90;;;;;;5033114;28;20055;-76
2022/04/24 03:32:24;;;;;;;28.67;18.35;;;11.30;79.90;;;;;;5032894;28;20028;-76
2022/04/24 03:34:51;;;;;;;34.10;17.98;;;11.40;79.70;;;;;;5032961;28;20030;-76
2022/04/24 03:37:18;;;;;;;33.00;18.45;;;11.40;79.60;;;;;;5032884;28;20169;-77
2022/04/24 03:39:43;;;;;;;29.33;19.42;;;11.50;79.60;;;;;;5030259;28;20045;-79
2022/04/24 03:42:09;;;;;;;28.27;17.85;;;11.50;79.30;;;;;;5031542;28;20033;-76
2022/04/24 03:44:35;;;;;;;29.92;18.65;;;11.60;79.20;;;;;;5032953;28;20024;-78
2022/04/24 03:47:01;;;;;;;29.60;16.95;;;11.50;79.00;;;;;;5032990;28;20030;-76
2022/04/24 03:49:27;;;;;;;28.02;17.60;;;11.60;79.00;;;;;;5033000;28;20132;-77
2022/04/24 03:51:53;;;;;;;28.05;17.42;;;11.60;78.90;;;;;;5032806;28;20040;-77
2022/04/24 03:54:20;;;;;;;27.52;17.33;;;11.60;78.80;;;;;;5032731;28;20021;-78
2022/04/24 03:56:46;;;;;;;26.02;17.48;;;11.60;78.80;;;;;;5031653;28;20106;-78
2022/04/24 03:59:11;;;;;;;27.15;17.60;;;11.60;78.90;;;;;;5032272;28;20466;-76
2022/04/24 04:01:37;;;;;;;27.33;17.55;;;11.60;78.90;;;;;;5031182;28;20402;-77
2022/04/24 04:04:03;;;;;;;25.08;17.08;;;11.50;78.80;;;;;;5032496;28;20037;-77
2022/04/24 04:06:29;;;;;;;34.15;17.85;;;11.60;78.80;;;;;;5032436;28;20522;-78
2022/04/24 04:08:55;;;;;;;28.75;17.35;;;11.50;78.90;;;;;;5032336;28;20024;-78
2022/04/24 04:11:26;;;;;;;28.80;17.92;;;11.50;78.90;;;;;;5030267;28;20470;-78
2022/04/24 04:13:53;;;;;;;24.98;17.27;;;11.50;78.70;;;;;;5064168;28;20029;-77
2022/04/24 04:16:19;;;;;;;23.15;16.83;;;11.50;78.60;;;;;;5032321;28;20104;-77
2022/04/24 04:18:45;;;;;;;30.45;17.50;;;11.60;78.60;;;;;;5032441;28;20455;-77
2022/04/24 04:21:11;;;;;;;20.30;16.05;;;11.60;78.50;;;;;;5032029;28;20113;-76
2022/04/24 04:23:36;;;;;;;23.42;16.48;;;11.60;78.40;;;;;;5032106;28;20475;-78
2022/04/24 04:26:02;;;;;;;25.42;16.25;;;11.60;78.20;;;;;;5032126;28;20196;-77
2022/04/24 04:28:28;;;;;;;24.65;17.65;;;11.70;78.30;;;;;;5032057;28;20025;-77
2022/04/24 04:30:54;;;;;;;26.30;15.57;;;11.70;78.00;;;;;;5031340;28;20549;-79
2022/04/24 04:33:21;;;;;;;28.50;16.10;;;11.80;77.70;;;;;;5032201;28;20084;-77
2022/04/24 04:35:47;;;;;;;29.27;15.85;;;11.80;77.60;;;;;;5032149;28;20048;-77
2022/04/24 04:38:14;;;;;;;28.55;16.38;;;11.80;77.40;;;;;;5030794;28;20064;-77
2022/04/24 04:40:40;;;;;;;38.17;16.33;;;11.90;77.50;;;;;;5031807;28;20102;-78
2022/04/24 04:43:06;;;;;;;21.77;14.30;;;11.90;77.20;;;;;;5031900;28;20025;-80
2022/04/24 04:45:32;;;;;;;24.17;15.65;;;12.00;76.50;;;;;;5031938;28;20025;-79
2022/04/24 04:47:58;;;;;;;19.98;14.05;;;12.10;76.10;;;;;;5031396;28;20391;-79
2022/04/24 04:50:24;;;;;;;22.50;14.48;;;12.00;75.70;;;;;;5032485;28;20033;-78
2022/04/24 04:52:50;;;;;;;23.08;15.75;;;12.00;75.80;;;;;;5031918;28;20025;-79
2022/04/24 04:55:16;;;;;;;24.95;14.15;;;11.90;76.10;;;;;;5031953;28;20032;-79
2022/04/24 04:57:42;;;;;;;18.63;13.10;;;11.90;76.20;;;;;;5031940;28;20029;-78
2022/04/24 05:00:08;;;;;;;24.60;15.23;;;11.90;76.20;;;;;;5031895;28;20029;-78
2022/04/24 05:02:38;;;;;;;23.90;13.55;;;11.80;76.20;;;;;;5030489;28;20475;-78
2022/04/24 05:05:06;;;;;;;31.58;17.38;;;11.90;76.20;;;;;;5031700;28;20044;-80
2022/04/24 05:07:32;;;;;;;;;;;11.90;76.10;;;;;;5032093;28;20022;-79
2022/04/24 05:09:58;;;;;;;26.70;12.82;;;11.80;76.10;;;;;;5031789;28;19963;-81
2022/04/24 05:12:27;;;;;;;18.05;13.88;;;11.80;76.10;;;;;;5031535;28;20032;-80
2022/04/24 05:15:01;;;;;;;24.45;15.02;;;11.80;76.30;;;;;;5030683;28;20100;-80
2022/04/24 05:17:27;;;;;;;21.13;13.68;;;11.80;76.70;;;;;;5031727;28;20029;-79
2022/04/24 05:19:54;;;;;;;20.10;14.43;;;11.80;76.80;;;;;;5030940;28;20974;-79
2022/04/24 05:22:19;;;;;;;18.77;15.00;;;11.80;76.90;;;;;;5031875;28;20071;-78
2022/04/24 05:24:45;;;;;;;24.55;14.25;;;11.80;76.80;;;;;;5032074;28;20029;-77
2022/04/24 05:27:11;;;;;;;20.13;13.68;;;11.80;76.80;;;;;;5035298;28;20544;-78
2022/04/24 05:29:37;;;;;;;21.83;13.73;;;11.80;76.90;;;;;;5037212;28;20032;-78
2022/04/24 05:32:03;;;;;;;20.50;14.23;;;11.80;76.90;;;;;;5036033;28;20033;-77
2022/04/24 05:34:29;;;;;;;36.83;20.60;;;11.80;76.80;;;;;;5035338;28;20090;-77
2022/04/24 05:36:54;;;;;;;28.77;15.57;;;11.80;77.00;;;;;;5034529;28;20542;-79
2022/04/24 05:39:20;;;;;;;21.73;13.70;;;11.70;76.90;;;;;;5033627;28;20049;-79
2022/04/24 05:41:46;;;;;;;28.02;15.02;;;11.80;77.20;;;;;;5067674;28;20025;-78
2022/04/24 05:44:12;;;;;;;21.27;13.95;;;11.80;77.30;;;;;;5035614;28;20474;-79
2022/04/24 05:46:37;;;;;;;21.05;13.57;;;11.80;77.20;;;;;;5035375;28;20437;-77
2022/04/24 05:49:03;;;;;;;22.85;14.60;;;11.80;77.00;;;;;;5032993;28;20506;-80
2022/04/24 05:51:29;;;;;;;18.40;12.20;;;11.80;77.10;;;;;;5035645;28;20028;-78
2022/04/24 05:53:58;;;;;;;24.20;13.80;;;11.80;77.00;;;;;;5035130;28;20030;-77
2022/04/24 05:56:24;;;;;;;21.05;13.90;;;11.70;77.30;;;;;;5034485;28;20494;-80
2022/04/24 05:58:50;;;;;;;27.02;14.32;;;11.70;77.30;;;;;;5036686;28;20033;-81
2022/04/24 06:01:16;;;;;;;21.95;13.77;;;11.70;77.20;;;;;;5034983;28;20033;-79
2022/04/24 06:03:41;;;;;;;20.92;13.23;;;11.70;77.20;;;;;;5035325;28;20017;-78
2022/04/24 06:06:07;;;;;;;22.88;13.52;;;11.70;77.70;;;;;;5034618;28;20037;-77
2022/04/24 06:08:33;;;;;;;21.00;13.95;;;11.70;77.40;;;;;;5029914;28;20100;-78
2022/04/24 06:10:59;;;;;;;23.77;14.05;;;11.80;77.30;;;;;;5030769;28;20021;-77
2022/04/24 06:13:25;;;;;;;21.25;13.85;;;11.80;77.40;;;;;;5034655;28;20498;-78
2022/04/24 06:15:55;;;;;;;23.67;14.35;;;11.90;77.40;;;;;;5034574;28;20022;-77
2022/04/24 06:18:21;;;;;;;19.83;13.15;;;12.10;76.90;;;;;;5034521;28;20018;-77
2022/04/24 06:20:46;;;;;;;25.35;14.23;;;12.30;76.30;;;;;;5034238;28;20033;-77
2022/04/24 06:23:12;;;;;;;22.60;13.45;;;12.30;75.90;;;;;;5033761;28;20029;-77
2022/04/24 06:25:39;;;;;;;19.83;13.73;;;12.40;75.40;;;;;;5034570;28;20030;-77
2022/04/24 06:28:05;;;;;;;20.08;12.80;;;12.50;75.20;;;;;;5034319;28;20024;-81
2022/04/24 06:30:35;;;;;;;19.05;13.40;;;12.60;74.80;;;;;;5034366;28;20487;-77
2022/04/24 06:33:03;;;;;;;24.25;14.35;;;12.60;75.00;;;;;;5034220;28;20053;-79
2022/04/24 06:35:29;;;;;;;24.75;14.45;;;12.60;74.90;;;;;;5034464;28;20026;-78
2022/04/24 06:37:55;;;;;;;23.63;13.38;;;12.60;74.70;;;;;;5034884;28;20028;-79
2022/04/24 06:40:23;;;;;;;26.15;13.23;;;12.60;74.50;;;;;;5035422;28;20049;-77
2022/04/24 06:42:56;;;;;;;;;;;12.50;74.10;;;;;;5034761;28;20101;-79
2022/04/24 06:45:29;;;;;;;24.70;13.18;;;12.50;74.40;;;;;;5034259;28;19905;-80
2022/04/24 06:47:56;;;;;;;25.98;13.02;;;12.40;74.50;;;;;;5028134;28;20025;-78
2022/04/24 06:50:23;;;;;;;20.92;12.65;;;12.40;74.60;;;;;;5027697;28;20052;-78
2022/04/24 06:53:01;;;;;;;20.35;12.45;;;12.50;74.20;;;;;;5033030;28;20065;-77
2022/04/24 06:55:28;;;;;;;20.77;12.18;;;12.60;73.80;;;;;;5033813;28;20029;-77
2022/04/24 06:57:57;;;;;;;16.88;11.50;;;12.80;73.40;;;;;;5033404;28;20021;-77
2022/04/24 07:00:25;;;;;;;20.67;12.93;;;13.00;72.90;;;;;;5033735;28;20514;-77
2022/04/24 07:02:51;;;;;;;16.02;11.07;;;13.10;72.20;;;;;;5033648;28;20021;-77
2022/04/24 07:05:20;;;;;;;18.40;11.32;;;13.20;71.50;;;;;;5028868;28;20042;-78
2022/04/24 07:07:46;;;;;;;21.65;10.88;;;13.30;71.50;;;;;;5014282;28;20049;-83
2022/04/24 07:10:12;;;;;;;21.75;11.95;;;13.30;71.00;;;;;;5015258;28;20483;-80
2022/04/24 07:12:51;;;;;;;20.98;11.80;;;13.30;71.00;;;;;;5033320;28;20047;-80
2022/04/24 07:15:21;;;;;;;19.08;11.32;;;13.30;70.60;;;;;;5033256;28;20498;-81
2022/04/24 07:17:48;;;;;;;15.38;11.65;;;13.30;70.50;;;;;;5034039;28;20036;-80
2022/04/24 07:20:15;;;;;;;21.00;13.35;;;13.40;70.40;;;;;;5067450;28;20048;-80
2022/04/24 07:22:49;;;;;;;20.27;11.07;;;13.40;70.50;;;;;;5034705;28;20454;-80
2022/04/24 07:25:17;;;;;;;20.60;12.05;;;13.50;70.10;;;;;;5034957;28;20029;-81
2022/04/24 07:27:44;;;;;;;21.42;12.15;;;13.50;70.20;;;;;;5032804;28;20025;-80
2022/04/24 07:30:13;;;;;;;22.02;12.30;;;13.60;69.90;;;;;;5032114;28;20025;-80
2022/04/24 07:32:59;;;;;;;20.73;11.10;;;13.70;69.50;;;;;;5018596;28;20383;-79
2022/04/24 07:35:31;;;;;;;22.65;11.57;;;13.80;68.90;;;;;;5012848;28;20068;-81
2022/04/24 07:37:57;;;;;;;24.92;12.70;;;13.90;69.00;;;;;;5013022;28;20045;-81
2022/04/24 07:40:26;;;;;;;22.52;11.45;;;14.00;68.70;;;;;;5020409;28;20446;-79
2022/04/24 07:42:59;;;;;;;23.75;12.02;;;14.10;68.40;;;;;;5034617;28;20552;-78
2022/04/24 07:45:28;;;;;;;19.10;11.65;;;14.20;68.00;;;;;;5032434;28;20501;-79
2022/04/24 07:47:54;;;;;;;23.02;11.27;;;14.20;67.80;;;;;;5031707;28;20517;-80
2022/04/24 07:50:25;;;;;;;16.80;11.43;;;14.10;67.60;;;;;;5025923;28;20025;-80
2022/04/24 07:52:52;;;;;;;18.38;11.90;;;14.10;67.90;;;;;;5032429;28;20026;-80
2022/04/24 07:55:21;;;;;;;20.13;12.20;;;14.10;67.90;;;;;;5023787;28;20038;-79
2022/04/24 07:57:48;;;;;;;21.08;11.57;;;14.00;67.40;;;;;;5027699;28;20071;-80
2022/04/24 08:00:21;;;;;;;20.17;11.43;;;14.00;67.60;;;;;;5032879;28;20029;-83
2022/04/24 08:03:16;;;;;;;20.88;12.10;;;13.90;67.80;;;;;;5027808;28;20033;-82
2022/04/24 08:05:47;;;;;;;18.45;12.25;;;14.00;68.00;;;;;;5028214;28;20041;-82
2022/04/24 08:08:21;;;;;;;28.00;12.80;;;14.00;67.50;;;;;;5064435;28;20056;-80
2022/04/24 08:10:48;;;;;;;23.55;13.00;;;14.00;67.80;;;;;;5032496;28;20074;-81
2022/04/24 08:13:15;;;;;;;22.05;11.57;;;14.10;67.80;;;;;;5016983;28;20380;-82
2022/04/24 08:15:41;;;;;;;27.65;11.98;;;14.20;67.40;;;;;;5012391;28;20132;-81
2022/04/24 08:18:07;;;;;;;16.70;11.70;;;14.20;66.80;;;;;;5013484;28;20026;-81
2022/04/24 08:20:34;;;;;;;20.00;11.77;;;14.30;66.50;;;;;;5033197;28;20033;-81
2022/04/24 08:23:04;;;;;;;26.73;11.75;;;14.40;66.30;;;;;;5065057;28;20104;-83
2022/04/24 08:25:35;;;;;;;18.05;11.80;;;14.60;66.10;;;;;;5033118;28;20029;-82
2022/04/24 08:28:05;;;;;;;23.40;13.07;;;14.70;65.80;;;;;;5032763;28;20387;-83
2022/04/24 08:30:31;;;;;;;31.20;12.35;;;14.90;66.00;;;;;;5033312;28;20043;-82
2022/04/24 08:32:56;;;;;;;26.98;11.68;;;15.10;64.90;;;;;;5033660;28;20066;-81
2022/04/24 08:35:22;;;;;;;17.83;11.38;;;15.20;64.30;;;;;;5031565;28;20112;-81
2022/04/24 08:37:48;;;;;;;20.30;11.90;;;15.30;63.30;;;;;;5032462;28;20021;-83
2022/04/24 08:40:16;;;;;;;20.95;11.40;;;15.50;63.30;;;;;;5031716;28;20051;-82
2022/04/24 08:42:41;;;;;;;;;;;15.50;62.80;;;;;;5032994;28;20018;-83
2022/04/24 08:45:15;;;;;;;20.17;11.18;;;15.50;63.10;;;;;;5032278;28;19951;-85
2022/04/24 08:47:43;;;;;;;23.33;11.68;;;15.40;63.10;;;;;;5033765;28;20028;-83
2022/04/24 08:50:10;;;;;;;23.65;10.30;;;15.40;62.30;;;;;;5034044;28;20018;-84
2022/04/24 08:52:37;;;;;;;27.10;11.98;;;15.50;61.80;;;;;;5032849;28;20038;-84
2022/04/24 08:55:03;;;;;;;16.10;10.10;;;15.50;62.40;;;;;;5032001;28;20079;-84
2022/04/24 08:57:32;;;;;;;18.85;10.65;;;15.60;61.80;;;;;;5032227;28;20082;-82
2022/04/24 08:59:59;;;;;;;25.20;11.75;;;15.70;61.40;;;;;;5031914;28;20110;-83
2022/04/24 09:02:25;;;;;;;21.73;12.10;;;15.80;61.00;;;;;;5018450;28;20557;-80
2022/04/24 09:04:55;;;;;;;17.05;10.00;;;15.90;61.10;;;;;;5015105;28;20030;-81
2022/04/24 09:07:22;;;;;;;16.10;10.55;;;15.90;61.20;;;;;;5019933;28;20025;-80
2022/04/24 09:09:53;;;;;;;19.35;11.02;;;16.10;61.20;;;;;;5035211;28;20021;-81
2022/04/24 09:12:26;;;;;;;24.58;11.65;;;16.30;61.10;;;;;;5035452;28;20439;-82
2022/04/24 09:14:58;;;;;;;21.08;10.93;;;16.60;60.00;;;;;;5021033;28;20026;-81
2022/04/24 09:17:24;;;;;;;23.67;11.10;;;16.80;59.40;;;;;;5014460;28;20026;-79
2022/04/24 09:19:51;;;;;;;21.33;11.50;;;16.90;58.70;;;;;;5015660;28;20120;-81
2022/04/24 09:22:17;;;;;;;20.65;10.65;;;17.10;58.30;;;;;;5015551;28;20391;-82
2022/04/24 09:24:48;;;;;;;20.85;11.25;;;17.30;58.30;;;;;;5015543;28;20034;-80
2022/04/24 09:27:25;;;;;;;25.15;12.38;;;17.50;57.00;;;;;;5031283;28;20020;-80
2022/04/24 09:29:54;;;;;;;17.50;11.32;;;17.50;57.30;;;;;;5016016;28;20025;-80
2022/04/24 09:32:20;;;;;;;28.35;12.85;;;17.70;57.30;;;;;;5014872;28;20026;-81
2022/04/24 09:34:46;;;;;;;24.67;12.63;;;18.10;56.30;;;;;;5020774;28;20039;-81
2022/04/24 09:37:12;;;;;;;18.85;11.50;;;18.30;55.80;;;;;;5034995;28;20033;-80
2022/04/24 09:39:39;;;;;;;24.67;12.23;;;18.50;55.10;;;;;;5034097;28;20045;-78
2022/04/24 09:42:11;;;;;;;17.00;11.13;;;18.70;54.80;;;;;;5034434;28;20035;-80
2022/04/24 09:44:41;;;;;;;24.13;11.85;;;19.00;54.20;;;;;;5023979;28;20036;-80
2022/04/24 09:47:08;;;;;;;19.92;10.57;;;19.10;53.70;;;;;;5030857;28;20025;-79
2022/04/24 09:49:41;;;;;;;17.30;10.77;;;19.20;53.30;;;;;;5026170;28;20025;-80
2022/04/24 09:52:19;;;;;;;21.25;10.35;;;19.10;53.20;;;;;;5034705;28;20029;-80
2022/04/24 09:54:49;;;;;;;22.02;10.07;;;18.90;53.40;;;;;;5031356;28;20517;-82
2022/04/24 09:57:16;;;;;;;20.23;9.88;;;18.70;54.10;;;;;;5033241;28;20048;-81
2022/04/24 09:59:44;;;;;;;13.20;9.70;;;18.50;54.50;;;;;;5061453;28;20038;-83
2022/04/24 10:02:13;;;;;;;15.07;9.13;;;18.30;54.80;;;;;;5019691;28;20032;-84
2022/04/24 10:04:46;;;;;;;11.40;9.43;;;17.90;55.80;;;;;;5051831;28;20033;-85
2022/04/24 10:07:16;;;;;;;17.75;9.02;;;17.50;57.00;;;;;;5035001;28;20026;-82
2022/04/24 10:09:44;;;;;;;15.43;9.52;;;17.30;58.50;;;;;;5036269;28;20442;-82
2022/04/24 10:12:20;;;;;;;14.95;8.93;;;17.00;59.70;;;;;;5035136;28;20433;-83
2022/04/24 10:14:50;;;;;;;13.25;7.93;;;16.70;59.60;;;;;;5032498;28;20079;-81
2022/04/24 10:17:28;;;;;;;13.85;9.23;;;16.50;60.20;;;;;;5013276;28;20025;-79
2022/04/24 10:20:34;;;;;;;16.73;9.32;;;16.30;61.00;;;;;;5015020;28;20376;-79
2022/04/24 10:23:00;;;;;;;12.52;9.85;;;16.30;62.50;;;;;;5015932;28;20400;-79
2022/04/24 10:25:38;;;;;;;13.35;9.18;;;16.40;63.50;;;;;;5017977;28;20181;-79
2022/04/24 10:28:11;;;;;;;14.52;9.63;;;16.80;62.00;;;;;;5016536;28;20476;-80
2022/04/24 10:30:37;;;;;;;15.48;8.25;;;17.00;61.20;;;;;;5015143;28;20026;-80
2022/04/24 10:33:28;;;;;;;18.95;9.30;;;17.20;59.80;;;;;;5014720;28;20380;-78
2022/04/24 10:36:14;;;;;;;13.52;8.50;;;17.30;59.10;;;;;;5034373;28;20017;-79
2022/04/24 10:38:49;;;;;;;11.68;7.85;;;17.30;58.70;;;;;;5034385;28;20022;-81
2022/04/24 10:41:17;;;;;;;12.65;8.30;;;17.20;58.00;;;;;;5033954;28;20049;-80
2022/04/24 10:43:48;;;;;;;10.52;6.35;;;17.00;57.90;;;;;;5034478;28;20491;-80
2022/04/24 10:46:26;;;;;;;12.32;5.80;;;16.90;57.40;;;;;;5066468;28;20024;-79
2022/04/24 10:48:52;;;;;;;11.00;6.80;;;16.70;56.70;;;;;;5032944;28;20494;-79
2022/04/24 10:51:32;;;;;;;10.90;6.03;;;16.30;58.20;;;;;;5018136;28;20022;-80
2022/04/24 10:54:05;;;;;;;10.82;7.45;;;15.90;59.50;;;;;;5014200;28;20399;-78
2022/04/24 10:56:32;;;;;;;11.85;7.20;;;15.70;60.20;;;;;;5019944;28;20018;-81
2022/04/24 10:59:16;;;;;;;9.90;6.85;;;15.70;61.40;;;;;;5033565;28;20026;-79
2022/04/24 11:01:44;;;;;;;8.55;5.28;;;15.40;63.80;;;;;;5033573;28;20033;-80
2022/04/24 11:04:12;;;;;;;9.32;6.60;;;14.80;69.20;;;;;;5033450;28;20022;-81
2022/04/24 11:06:38;;;;;;;14.75;9.57;;;13.60;75.00;;;;;;5033039;28;20051;-80
2022/04/24 11:09:09;;;;;;;21.77;11.35;;;12.80;79.80;;;;;;5033737;28;20099;-80
2022/04/24 11:11:52;;;;;;;12.35;9.95;;;12.50;82.50;;;;;;5033378;28;20056;-79
2022/04/24 11:14:23;;;;;;;15.25;11.45;;;12.30;83.60;;;;;;5033269;28;20101;-81
2022/04/24 11:16:51;;;;;;;18.00;12.05;;;12.30;83.40;;;;;;5033418;28;20108;-79
2022/04/24 11:19:36;;;;;;;16.23;9.80;;;12.40;83.10;;;;;;5033460;28;20095;-79
2022/04/24 11:22:05;;;;;;;12.27;10.88;;;12.70;81.30;;;;;;5033722;28;20057;-80
2022/04/24 11:24:33;;;;;;;11.00;9.43;;;13.00;80.80;;;;;;5031802;28;20018;-79
2022/04/24 11:27:11;;;;;;;11.35;9.48;;;13.40;79.30;;;;;;5033100;28;20526;-81
2022/04/24 11:29:37;;;;;;;12.93;9.05;;;13.70;77.90;;;;;;5032981;28;20087;-79
2022/04/24 11:32:08;;;;;;;13.45;9.73;;;14.10;77.30;;;;;;5033518;28;20044;-81
2022/04/24 11:34:34;;;;;;;12.65;9.25;;;14.40;76.30;;;;;;5032919;28;20402;-79
2022/04/24 11:37:01;;;;;;;11.60;10.02;;;14.50;74.90;;;;;;5033183;28;20025;-81
2022/04/24 11:39:27;;;;;;;11.45;9.13;;;14.50;75.50;;;;;;5032315;28;20079;-77
2022/04/24 11:41:55;;;;;;;11.90;10.43;;;14.10;77.90;;;;;;5065029;28;20030;-79
2022/04/24 11:52:39;;;;;;;13.70;12.13;;;13.10;86.20;;;;;;5033519;28;20117;-80
2022/04/24 11:55:06;;;;;;;14.90;11.88;;;12.80;87.50;;;;;;5031969;28;20029;-79
2022/04/24 11:57:35;;;;;;;16.88;13.73;;;12.50;90.20;;;;;;5032234;28;20170;-82
2022/04/24 12:00:03;;;;;;;12.77;11.45;;;12.20;91.40;;;;;;5032264;28;20025;-80
2022/04/24 12:02:29;;;;;;;18.88;15.15;;;12.00;92.20;;;;;;5032525;28;20018;-81
2022/04/24 12:04:56;;;;;;;21.80;15.82;;;11.80;93.10;;;;;;5032542;28;20038;-81
2022/04/24 12:07:36;;;;;;;16.30;13.40;;;11.80;94.00;;;;;;5032798;28;20017;-79
2022/04/24 12:10:05;;;;;;;17.83;15.93;;;11.70;94.20;;;;;;5033487;28;20486;-80
2022/04/24 12:12:42;;;;;;;19.25;16.00;;;11.70;94.80;;;;;;5031634;28;20064;-81
2022/04/24 12:15:14;;;;;;;19.92;16.63;;;11.70;94.90;;;;;;5032425;28;20026;-82
2022/04/24 12:17:48;;;;;;;16.67;14.80;;;11.70;95.20;;;;;;5032092;28;20021;-78
2022/04/24 12:20:13;;;;;;;20.67;18.20;;;11.70;95.20;;;;;;5032110;28;20033;-80
2022/04/24 12:22:39;;;;;;;16.92;12.95;;;11.70;95.80;;;;;;5032218;28;20495;-79
2022/04/24 12:25:11;;;;;;;18.23;14.18;;;11.80;95.50;;;;;;5032167;28;20033;-80
2022/04/24 12:27:37;;;;;;;14.35;10.85;;;11.70;94.90;;;;;;5030228;28;20028;-80
2022/04/24 12:30:06;;;;;;;17.95;16.05;;;11.50;95.20;;;;;;5030570;28;20450;-80
2022/04/24 12:32:34;;;;;;;20.80;17.08;;;11.30;96.20;;;;;;5030538;28;20661;-79
2022/04/24 12:35:00;;;;;;;16.85;12.00;;;11.30;96.70;;;;;;5032895;28;20041;-80
2022/04/24 12:37:31;;;;;;;15.73;12.88;;;11.30;96.60;;;;;;5030730;28;20025;-79
2022/04/24 12:39:58;;;;;;;12.80;11.43;;;11.20;96.50;;;;;;5032169;28;20058;-81
2022/04/24 12:42:25;;;;;;;14.50;13.05;;;11.00;96.80;;;;;;5032169;28;20029;-82